sensor_id;sensor_type;location;lat;lon;timestamp;pressure;altitude;pressure_sealevel;temperature;humidity
60715;BME280;46564;53.096;8.246;2023-02-19T00:01:05;101272.31;;;5.31;99.53
60715;BME280;46564;53.096;8.246;2023-02-19T00:07:04;101266.88;;;5.07;99.42
60715;BME280;46564;53.096;8.246;2023-02-19T00:12:29;101278.53;;;4.97;99.41
60715;BME280;46564;53.096;8.246;2023-02-19T00:25:15;101273.41;;;4.63;99.38
60715;BME280;46564;53.096;8.246;2023-02-19T00:31:06;101276.53;;;4.55;99.53
60715;BME280;46564;53.096;8.246;2023-02-19T00:37:18;101270.28;;;4.52;99.63
60715;BME280;46564;53.096;8.246;2023-02-19T00:42:49;101283.09;;;4.49;99.64
60715;BME280;46564;53.096;8.246;2023-02-19T00:54:46;101290.69;;;4.28;99.80
60715;BME280;46564;53.096;8.246;2023-02-19T01:00:50;101278.56;;;4.27;99.74
60715;BME280;46564;53.096;8.246;2023-02-19T01:06:38;101282.75;;;4.24;99.83
60715;BME280;46564;53.096;8.246;2023-02-19T01:12:07;101290.75;;;4.29;99.94
60715;BME280;46564;53.096;8.246;2023-02-19T01:18:18;101303.66;;;4.28;99.95
60715;BME280;46564;53.096;8.246;2023-02-19T01:31:33;101313.13;;;4.27;100.00
60715;BME280;46564;53.096;8.246;2023-02-19T01:36:56;101318.19;;;4.07;100.00
60715;BME280;46564;53.096;8.246;2023-02-19T01:42:54;101306.25;;;4.11;100.00
60715;BME280;46564;53.096;8.246;2023-02-19T01:48:36;101304.59;;;4.12;100.00
60715;BME280;46564;53.096;8.246;2023-02-19T01:55:09;101300.78;;;4.05;100.00
60715;BME280;46564;53.096;8.246;2023-02-19T02:01:26;101303.44;;;3.90;100.00
60715;BME280;46564;53.096;8.246;2023-02-19T02:07:43;101296.66;;;3.92;100.00
60715;BME280;46564;53.096;8.246;2023-02-19T02:14:01;101292.59;;;3.81;100.00
60715;BME280;46564;53.096;8.246;2023-02-19T02:39:27;101302.34;;;3.68;100.00
60715;BME280;46564;53.096;8.246;2023-02-19T02:45:58;101317.53;;;3.62;100.00
60715;BME280;46564;53.096;8.246;2023-02-19T02:52:01;101330.81;;;3.52;100.00
60715;BME280;46564;53.096;8.246;2023-02-19T03:10:38;101346.72;;;3.43;100.00
60715;BME280;46564;53.096;8.246;2023-02-19T03:16:24;101360.28;;;3.39;100.00
60715;BME280;46564;53.096;8.246;2023-02-19T03:22:26;101365.84;;;3.45;100.00
60715;BME280;46564;53.096;8.246;2023-02-19T03:41:29;101399.38;;;3.44;100.00
60715;BME280;46564;53.096;8.246;2023-02-19T03:53:25;101428.69;;;3.43;100.00
60715;BME280;46564;53.096;8.246;2023-02-19T04:22:18;101485.22;;;3.20;100.00
60715;BME280;46564;53.096;8.246;2023-02-19T04:28:16;101494.41;;;3.15;100.00
60715;BME280;46564;53.096;8.246;2023-02-19T04:34:06;101508.16;;;3.14;100.00
60715;BME280;46564;53.096;8.246;2023-02-19T04:57:43;101541.16;;;3.18;99.92
60715;BME280;46564;53.096;8.246;2023-02-19T05:09:17;101580.56;;;3.27;99.79
60715;BME280;46564;53.096;8.246;2023-02-19T05:14:45;101588.69;;;3.33;99.91
60715;BME280;46564;53.096;8.246;2023-02-19T05:20:58;101591.44;;;3.36;99.88
60715;BME280;46564;53.096;8.246;2023-02-19T05:27:04;101600.72;;;3.33;99.99
60715;BME280;46564;53.096;8.246;2023-02-19T05:39:48;101628.22;;;3.31;99.96
60715;BME280;46564;53.096;8.246;2023-02-19T05:45:56;101631.50;;;3.28;99.99
60715;BME280;46564;53.096;8.246;2023-02-19T05:52:26;101643.66;;;3.29;99.88
60715;BME280;46564;53.096;8.246;2023-02-19T06:04:44;101660.50;;;3.23;99.68
60715;BME280;46564;53.096;8.246;2023-02-19T06:10:42;101678.44;;;3.19;99.64
60715;BME280;46564;53.096;8.246;2023-02-19T06:17:11;101688.25;;;3.25;99.67
60715;BME280;46564;53.096;8.246;2023-02-19T06:22:58;101709.75;;;3.24;99.53
60715;BME280;46564;53.096;8.246;2023-02-19T06:28:45;101724.50;;;3.25;99.67
60715;BME280;46564;53.096;8.246;2023-02-19T07:01:10;101792.00;;;3.28;99.68
60715;BME280;46564;53.096;8.246;2023-02-19T07:06:41;101810.13;;;3.28;99.76
60715;BME280;46564;53.096;8.246;2023-02-19T07:12:59;101813.63;;;3.29;99.75
60715;BME280;46564;53.096;8.246;2023-02-19T07:19:23;101826.25;;;3.24;99.54
60715;BME280;46564;53.096;8.246;2023-02-19T07:25:27;101833.03;;;3.22;99.69
60715;BME280;46564;53.096;8.246;2023-02-19T07:30:43;101851.53;;;3.28;99.67
60715;BME280;46564;53.096;8.246;2023-02-19T07:36:06;101868.56;;;3.38;99.79
60715;BME280;46564;53.096;8.246;2023-02-19T07:42:46;101859.56;;;3.46;99.66
60715;BME280;46564;53.096;8.246;2023-02-19T07:48:28;101876.41;;;3.53;99.61
60715;BME280;46564;53.096;8.246;2023-02-19T08:00:29;101865.97;;;3.80;99.86
60715;BME280;46564;53.096;8.246;2023-02-19T08:06:07;101877.72;;;4.16;99.97
60715;BME280;46564;53.096;8.246;2023-02-19T08:11:54;101877.03;;;5.88;100.00
60715;BME280;46564;53.096;8.246;2023-02-19T08:18:31;101884.31;;;8.06;100.00
60715;BME280;46564;53.096;8.246;2023-02-19T08:42:12;101897.66;;;7.19;90.69
60715;BME280;46564;53.096;8.246;2023-02-19T08:47:47;101924.50;;;7.54;89.95
60715;BME280;46564;53.096;8.246;2023-02-19T09:00:02;101944.09;;;8.02;88.04
60715;BME280;46564;53.096;8.246;2023-02-19T09:05:10;101949.69;;;7.36;87.06
60715;BME280;46564;53.096;8.246;2023-02-19T09:11:16;101969.22;;;6.42;86.97
60715;BME280;46564;53.096;8.246;2023-02-19T09:23:00;102010.13;;;6.94;88.30
60715;BME280;46564;53.096;8.246;2023-02-19T09:28:43;102025.44;;;7.22;87.89
60715;BME280;46564;53.096;8.246;2023-02-19T09:33:57;102029.47;;;7.34;87.77
60715;BME280;46564;53.096;8.246;2023-02-19T09:39:20;102052.09;;;6.84;87.43
60715;BME280;46564;53.096;8.246;2023-02-19T09:44:35;102050.47;;;6.86;87.35
60715;BME280;46564;53.096;8.246;2023-02-19T09:49:43;102063.28;;;7.16;87.55
60715;BME280;46564;53.096;8.246;2023-02-19T09:55:01;102073.13;;;7.38;86.85
60715;BME280;46564;53.096;8.246;2023-02-19T10:05:20;102083.16;;;7.83;86.24
60715;BME280;46564;53.096;8.246;2023-02-19T10:10:31;102101.31;;;7.63;85.57
60715;BME280;46564;53.096;8.246;2023-02-19T10:15:43;102095.94;;;7.60;84.66
60715;BME280;46564;53.096;8.246;2023-02-19T10:20:46;102096.47;;;7.71;83.80
60715;BME280;46564;53.096;8.246;2023-02-19T10:25:52;102092.56;;;7.63;83.26
60715;BME280;46564;53.096;8.246;2023-02-19T10:31:10;102091.91;;;7.67;82.68
60715;BME280;46564;53.096;8.246;2023-02-19T10:36:37;102089.47;;;7.70;82.62
60715;BME280;46564;53.096;8.246;2023-02-19T10:41:40;102115.06;;;7.26;81.78
60715;BME280;46564;53.096;8.246;2023-02-19T10:46:46;102142.97;;;7.45;81.81
60715;BME280;46564;53.096;8.246;2023-02-19T10:51:51;102152.94;;;8.05;81.45
60715;BME280;46564;53.096;8.246;2023-02-19T10:56:54;57128.34;;;-147.53;100.00
60715;BME280;46564;53.096;8.246;2023-02-19T11:02:00;57128.34;;;-147.53;100.00
60715;BME280;46564;53.096;8.246;2023-02-19T11:07:16;102152.94;;;8.05;81.45
60715;BME280;46564;53.096;8.246;2023-02-19T11:12:26;102170.75;;;7.79;79.15
60715;BME280;46564;53.096;8.246;2023-02-19T11:17:29;102163.28;;;8.39;79.40
60715;BME280;46564;53.096;8.246;2023-02-19T11:22:41;102159.63;;;8.36;78.11
60715;BME280;46564;53.096;8.246;2023-02-19T11:28:03;102153.38;;;8.50;77.16
60715;BME280;46564;53.096;8.246;2023-02-19T11:33:20;102148.72;;;8.62;75.67
60715;BME280;46564;53.096;8.246;2023-02-19T11:38:22;102150.16;;;8.74;74.52
60715;BME280;46564;53.096;8.246;2023-02-19T11:54:45;102141.31;;;8.72;73.88
60715;BME280;46564;53.096;8.246;2023-02-19T12:10:58;102166.63;;;8.73;72.39
60715;BME280;46564;53.096;8.246;2023-02-19T12:21:51;102163.16;;;8.54;72.03
60715;BME280;46564;53.096;8.246;2023-02-19T12:27:14;102163.88;;;8.16;71.32
60715;BME280;46564;53.096;8.246;2023-02-19T12:32:53;102163.88;;;8.16;71.32
60715;BME280;46564;53.096;8.246;2023-02-19T12:38:18;102143.00;;;8.52;71.60
60715;BME280;46564;53.096;8.246;2023-02-19T12:43:22;102143.00;;;8.89;71.06
60715;BME280;46564;53.096;8.246;2023-02-19T12:53:44;102153.31;;;9.06;69.03
60715;BME280;46564;53.096;8.246;2023-02-19T12:59:09;102174.63;;;8.95;68.44
60715;BME280;46564;53.096;8.246;2023-02-19T13:10:21;102173.31;;;9.25;68.28
60715;BME280;46564;53.096;8.246;2023-02-19T13:15:41;102158.97;;;9.15;67.84
60715;BME280;46564;53.096;8.246;2023-02-19T13:20:45;102144.56;;;9.05;67.75
60715;BME280;46564;53.096;8.246;2023-02-19T13:36:53;102175.41;;;8.75;67.09
60715;BME280;46564;53.096;8.246;2023-02-19T13:41:56;102178.13;;;8.58;67.10
60715;BME280;46564;53.096;8.246;2023-02-19T13:47:01;102186.53;;;8.35;67.35
60715;BME280;46564;53.096;8.246;2023-02-19T13:57:33;102203.44;;;8.07;67.54
60715;BME280;46564;53.096;8.246;2023-02-19T14:02:42;102203.44;;;8.07;68.36
60715;BME280;46564;53.096;8.246;2023-02-19T14:07:53;102200.88;;;7.90;68.93
60715;BME280;46564;53.096;8.246;2023-02-19T14:12:55;102199.25;;;7.92;69.65
60715;BME280;46564;53.096;8.246;2023-02-19T14:17:57;102193.88;;;7.89;69.69
60715;BME280;46564;53.096;8.246;2023-02-19T14:23:07;102188.00;;;7.93;69.63
60715;BME280;46564;53.096;8.246;2023-02-19T14:33:14;102155.59;;;7.88;69.92
60715;BME280;46564;53.096;8.246;2023-02-19T14:38:22;102135.75;;;7.92;69.97
60715;BME280;46564;53.096;8.246;2023-02-19T14:43:26;102127.34;;;7.79;70.31
60715;BME280;46564;53.096;8.246;2023-02-19T14:48:44;102124.66;;;7.78;70.37
60715;BME280;46564;53.096;8.246;2023-02-19T14:53:48;102130.22;;;7.68;70.46
60715;BME280;46564;53.096;8.246;2023-02-19T15:04:22;102125.38;;;7.41;70.73
60715;BME280;46564;53.096;8.246;2023-02-19T15:09:25;102132.00;;;7.34;71.08
60715;BME280;46564;53.096;8.246;2023-02-19T15:14:30;102137.47;;;7.22;71.20
60715;BME280;46564;53.096;8.246;2023-02-19T15:19:34;102152.63;;;7.13;71.70
60715;BME280;46564;53.096;8.246;2023-02-19T15:24:42;102147.66;;;7.01;72.15
60715;BME280;46564;53.096;8.246;2023-02-19T15:29:46;102152.63;;;6.97;72.46
60715;BME280;46564;53.096;8.246;2023-02-19T15:34:55;102154.06;;;6.92;73.08
60715;BME280;46564;53.096;8.246;2023-02-19T15:39:59;102152.69;;;6.82;73.44
60715;BME280;46564;53.096;8.246;2023-02-19T15:50:29;102172.81;;;6.69;74.41
60715;BME280;46564;53.096;8.246;2023-02-19T15:55:42;102159.22;;;6.59;74.89
60715;BME280;46564;53.096;8.246;2023-02-19T16:06:09;102163.91;;;6.49;75.30
60715;BME280;46564;53.096;8.246;2023-02-19T16:16:28;102157.78;;;6.32;75.30
60715;BME280;46564;53.096;8.246;2023-02-19T16:21:31;102176.28;;;6.22;75.55
60715;BME280;46564;53.096;8.246;2023-02-19T16:26:40;102177.44;;;6.12;75.53
60715;BME280;46564;53.096;8.246;2023-02-19T16:31:47;102180.97;;;5.98;75.57
60715;BME280;46564;53.096;8.246;2023-02-19T16:36:49;102184.75;;;5.90;75.70
60715;BME280;46564;53.096;8.246;2023-02-19T16:47:13;102182.31;;;5.63;76.06
60715;BME280;46564;53.096;8.246;2023-02-19T16:52:15;102196.41;;;5.52;76.34
60715;BME280;46564;53.096;8.246;2023-02-19T16:57:17;102203.34;;;5.38;76.52
60715;BME280;46564;53.096;8.246;2023-02-19T17:02:21;102206.19;;;5.27;77.03
60715;BME280;46564;53.096;8.246;2023-02-19T17:07:24;102205.63;;;5.18;77.11
60715;BME280;46564;53.096;8.246;2023-02-19T17:12:27;102220.25;;;5.03;77.85
60715;BME280;46564;53.096;8.246;2023-02-19T17:17:29;102223.88;;;4.91;78.27
60715;BME280;46564;53.096;8.246;2023-02-19T17:22:30;102219.28;;;4.87;78.39
60715;BME280;46564;53.096;8.246;2023-02-19T17:27:32;102220.50;;;4.79;79.08
60715;BME280;46564;53.096;8.246;2023-02-19T17:32:34;102225.91;;;4.82;79.32
60715;BME280;46564;53.096;8.246;2023-02-19T17:37:35;102230.25;;;4.83;79.81
60715;BME280;46564;53.096;8.246;2023-02-19T17:42:37;102229.56;;;4.86;80.24
60715;BME280;46564;53.096;8.246;2023-02-19T17:47:38;102224.75;;;4.92;80.64
60715;BME280;46564;53.096;8.246;2023-02-19T17:52:40;102232.34;;;4.89;81.04
60715;BME280;46564;53.096;8.246;2023-02-19T17:57:42;102225.44;;;4.89;81.41
60715;BME280;46564;53.096;8.246;2023-02-19T18:02:44;102226.97;;;4.86;81.68
60715;BME280;46564;53.096;8.246;2023-02-19T18:07:47;102235.44;;;4.83;82.15
60715;BME280;46564;53.096;8.246;2023-02-19T18:12:48;102238.16;;;4.85;82.51
60715;BME280;46564;53.096;8.246;2023-02-19T18:17:50;102228.69;;;4.85;82.56
60715;BME280;46564;53.096;8.246;2023-02-19T18:22:53;102231.97;;;4.83;82.88
60715;BME280;46564;53.096;8.246;2023-02-19T18:27:55;102232.66;;;4.80;82.98
60715;BME280;46564;53.096;8.246;2023-02-19T18:32:57;102221.31;;;4.78;83.24
60715;BME280;46564;53.096;8.246;2023-02-19T18:37:59;102210.81;;;4.76;83.48
60715;BME280;46564;53.096;8.246;2023-02-19T18:43:00;102208.22;;;4.76;83.79
60715;BME280;46564;53.096;8.246;2023-02-19T18:48:03;102213.22;;;4.73;84.15
60715;BME280;46564;53.096;8.246;2023-02-19T18:53:06;102213.41;;;4.76;84.28
60715;BME280;46564;53.096;8.246;2023-02-19T18:58:07;102200.44;;;4.76;84.54
60715;BME280;46564;53.096;8.246;2023-02-19T19:03:09;102210.81;;;4.76;84.84
60715;BME280;46564;53.096;8.246;2023-02-19T19:08:10;102228.78;;;4.73;84.97
60715;BME280;46564;53.096;8.246;2023-02-19T19:13:12;102232.78;;;4.68;85.15
60715;BME280;46564;53.096;8.246;2023-02-19T19:18:13;102216.91;;;4.64;85.29
60715;BME280;46564;53.096;8.246;2023-02-19T19:23:15;102202.25;;;4.64;85.51
60715;BME280;46564;53.096;8.246;2023-02-19T19:28:16;102199.66;;;4.64;85.48
60715;BME280;46564;53.096;8.246;2023-02-19T19:33:18;102203.25;;;4.66;85.59
60715;BME280;46564;53.096;8.246;2023-02-19T19:38:20;102196.06;;;4.62;85.62
60715;BME280;46564;53.096;8.246;2023-02-19T19:43:25;102207.16;;;4.59;85.82
60715;BME280;46564;53.096;8.246;2023-02-19T19:48:27;102210.53;;;4.58;85.97
60715;BME280;46564;53.096;8.246;2023-02-19T19:53:29;102200.66;;;4.53;86.02
60715;BME280;46564;53.096;8.246;2023-02-19T19:58:30;102185.88;;;4.52;86.45
60715;BME280;46564;53.096;8.246;2023-02-19T20:03:32;102177.13;;;4.50;86.38
60715;BME280;46564;53.096;8.246;2023-02-19T20:08:34;102179.81;;;4.51;86.48
60715;BME280;46564;53.096;8.246;2023-02-19T20:13:36;102172.72;;;4.49;86.54
60715;BME280;46564;53.096;8.246;2023-02-19T20:18:37;102175.13;;;4.46;86.52
60715;BME280;46564;53.096;8.246;2023-02-19T20:23:39;102176.72;;;4.43;86.67
60715;BME280;46564;53.096;8.246;2023-02-19T20:28:41;102182.72;;;4.42;86.84
60715;BME280;46564;53.096;8.246;2023-02-19T20:33:45;102187.00;;;4.42;87.04
60715;BME280;46564;53.096;8.246;2023-02-19T20:38:48;102175.94;;;4.45;87.11
60715;BME280;46564;53.096;8.246;2023-02-19T20:43:50;102183.72;;;4.45;87.06
60715;BME280;46564;53.096;8.246;2023-02-19T20:48:51;102180.94;;;4.41;87.03
60715;BME280;46564;53.096;8.246;2023-02-19T20:53:53;102172.97;;;4.38;87.14
60715;BME280;46564;53.096;8.246;2023-02-19T20:58:54;102166.47;;;4.32;87.40
60715;BME280;46564;53.096;8.246;2023-02-19T21:03:56;102171.44;;;4.29;87.61
60715;BME280;46564;53.096;8.246;2023-02-19T21:08:57;102172.44;;;4.31;87.61
60715;BME280;46564;53.096;8.246;2023-02-19T21:13:59;102176.16;;;4.34;87.94
60715;BME280;46564;53.096;8.246;2023-02-19T21:19:01;102166.75;;;4.36;87.59
60715;BME280;46564;53.096;8.246;2023-02-19T21:24:03;102141.00;;;4.39;87.70
60715;BME280;46564;53.096;8.246;2023-02-19T21:29:07;102133.44;;;4.42;87.69
60715;BME280;46564;53.096;8.246;2023-02-19T21:34:13;102124.75;;;4.42;87.79
60715;BME280;46564;53.096;8.246;2023-02-19T21:39:18;102120.47;;;4.42;87.69
60715;BME280;46564;53.096;8.246;2023-02-19T21:44:19;102103.31;;;4.45;88.21
60715;BME280;46564;53.096;8.246;2023-02-19T21:49:21;102099.81;;;4.44;88.06
60715;BME280;46564;53.096;8.246;2023-02-19T21:54:24;102097.22;;;4.44;88.14
60715;BME280;46564;53.096;8.246;2023-02-19T21:59:25;102126.66;;;4.45;88.20
60715;BME280;46564;53.096;8.246;2023-02-19T22:04:27;102142.22;;;4.45;88.30
60715;BME280;46564;53.096;8.246;2023-02-19T22:09:28;102160.56;;;4.48;88.50
60715;BME280;46564;53.096;8.246;2023-02-19T22:14:30;102145.09;;;4.49;88.67
60715;BME280;46564;53.096;8.246;2023-02-19T22:19:31;102152.78;;;4.48;88.80
60715;BME280;46564;53.096;8.246;2023-02-19T22:24:33;102157.97;;;4.48;88.74
60715;BME280;46564;53.096;8.246;2023-02-19T22:29:34;102156.28;;;4.48;88.94
60715;BME280;46564;53.096;8.246;2023-02-19T22:34:39;102171.16;;;4.51;88.89
60715;BME280;46564;53.096;8.246;2023-02-19T22:39:42;102165.97;;;4.51;89.04
60715;BME280;46564;53.096;8.246;2023-02-19T22:44:44;102144.47;;;4.53;89.33
60715;BME280;46564;53.096;8.246;2023-02-19T22:49:46;102167.22;;;4.57;89.35
60715;BME280;46564;53.096;8.246;2023-02-19T22:54:47;102152.59;;;4.58;89.17
60715;BME280;46564;53.096;8.246;2023-02-19T22:59:50;102155.97;;;4.57;89.29
60715;BME280;46564;53.096;8.246;2023-02-19T23:04:51;102136.09;;;4.57;89.17
60715;BME280;46564;53.096;8.246;2023-02-19T23:09:53;102128.41;;;4.59;89.30
60715;BME280;46564;53.096;8.246;2023-02-19T23:14:54;102129.63;;;4.64;89.11
60715;BME280;46564;53.096;8.246;2023-02-19T23:19:55;102114.94;;;4.65;89.09
60715;BME280;46564;53.096;8.246;2023-02-19T23:24:57;102116.66;;;4.64;88.74
60715;BME280;46564;53.096;8.246;2023-02-19T23:29:58;102107.16;;;4.65;88.69
60715;BME280;46564;53.096;8.246;2023-02-19T23:35:00;102098.47;;;4.64;88.66
60715;BME280;46564;53.096;8.246;2023-02-19T23:40:02;102078.00;;;4.69;88.57
60715;BME280;46564;53.096;8.246;2023-02-19T23:45:04;102082.28;;;4.68;88.49
60715;BME280;46564;53.096;8.246;2023-02-19T23:50:06;102071.91;;;4.68;88.28
60715;BME280;46564;53.096;8.246;2023-02-19T23:55:07;102059.03;;;4.70;88.21
